Historyczne dane pomiarowe

Dodano dane terminowe – wersja testowa.

Dane z okresu 1951-2019

Wersja bazy: 1.34 [2019-03-16, lista zmian], aktualizacja planowana na 2019-04-15

Dane meteo z obszaru Polski uzyskane na podstawie danych udostępnionych przez Instytut Meteorologii i Gospodarki Wodnej – Państwowy Instytut Badawczy.

 

Wybierz Datę:    

       

TemperaturaWilgotnośćWiatrCiśnienieOpadyŚniegCzas trwania zjawisk
 Stacja t tx tn tng RH VA  wxwx mslp ppp RRR   cm mm wxwxwxwxwxwxwx
1939-09-11 17.4 22.5 13.6- 87.0----- 998.5- 3.5--x- 0.1-------
1939-09-12 16.8 19.0 14.5- 91.0----- 999.5- 1.1--x- 0.1-------
1939-09-13 15.9 18.3 14.3- 91.0----- 997.0- 1.2--x- 0.0-------
1939-09-14 14.1 18.5 11.5- 84.0----- 993.3- 1.4--x- 2.8-------
1939-09-15 15.7 21.5 9.3- 77.0----- 997.3- 0.0--x- 8.0-------
1939-09-16 14.8 16.5 11.5- 92.0----- 998.8- 5.1--x- 0.0-------
1939-09-17 13.8 15.2 13.5- 93.0----- 999.3- 13.1--x- 0.0-------
1939-09-18 13.1 15.2 12.4- 95.0-----1004.7- 4.5--x- 0.0-------
1939-09-19 13.2 16.3 10.8- 83.0-----1008.0- 4.8--x- 2.9-------
1939-09-20 11.7 12.9 9.0- 95.0-----1007.3- 16.3--x- 0.0-------
1939-09-21 12.3 13.0 10.5- 98.0-----1005.5- 5.3--x- 0.0-------
1939-09-22 13.0 16.2 10.6- 92.0-----1004.9- 0.1--x- 1.0-------
1939-09-23 11.7 15.9 8.0- 92.0-----1001.7- 0.3--x- 0.3-------
1939-09-24 7.2 10.9 5.0- 92.0-----1003.5- 1.6--x- 1.7-------
1939-09-25 7.0 12.0 2.0- 76.0-----1009.8- 1.5--x- 6.6-------
1939-09-26 5.8 7.9 4.5- 97.0-----1004.2- 13.6--x- 0.0-------
1939-09-27 5.9 10.0 1.7- 88.0-----1009.9- 0.4--x- 3.7-------
1939-09-28 7.0 11.0 0.0- 83.0-----1009.3- 0.2--x- 5.4-------
1939-09-29 8.5 12.3 6.0- 85.0-----1003.8- 0.0--x- 1.0-------
1939-09-30 8.8 14.6 5.4- 74.0----- 999.1- 0.0--x- 5.6-------
1939-10-01 10.0 15.0 2.6- 71.0----- 995.5- 0.0--x- 5.3-------
1939-10-02 7.9 10.0 5.5- 93.0----- 990.9- 21.3--x- 0.0-------
1939-10-03 5.3 8.5 3.5- 84.0-----1003.8- 2.7--x- 0.9-------
1939-10-04 4.0 10.2 -0.2- 68.0-----1011.8- 0.0--x- 10.2-------
1939-10-05 6.8 12.7 -0.8- 67.0-----1006.1- 0.0--x- 10.2-------
1939-10-06 8.1 13.5 1.2- 78.0-----1003.8- 0.1--x- 9.4-------
1939-10-07 3.8 9.0 0.5- 70.0-----1006.1- 0.0--x- 6.0-------
1939-10-08 3.3 6.5 -2.3- 71.0-----1008.4- 0.0--x- 6.9-------
1939-10-09 3.3 6.7 0.8- 85.0-----1007.2- 0.5--x- 1.9-------
1939-10-10 3.4 5.2 1.8- 97.0-----1005.4- 0.7--x- 0.0-------
4.3 ms

 

Źródłem pochodzenia danych jest Instytut Meteorologii i Gospodarki Wodnej – Państwowy Instytut Badawczy. Dane Instytutu Meteorologii i Gospodarki Wodnej – Państwowego Instytutu Badawczego zostały przetworzone.

Dane źródłowe można odnaleźć na stronie https://dane.imgw.pl